Time;durP1;ratioP1;P1;durP2;ratioP2;P2;SDS_P1;SDS_P2;PMS_P1;PMS_P2;Temp;Humidity;BMP_temperature;BMP_pressure;BME280_temperature;BME280_humidity;BME280_pressure;Samples;Min_cycle;Max_cycle;Signal;HPM_P1;HPM_P2
2021/08/26 00:00:53;;;;;;;14.65;11.93;;;17.20;99.90;;;;;;4974615;28;20515;-77
2021/08/26 00:06:06;;;;;;;18.40;14.18;;;17.10;99.90;;;;;;4990505;23;20057;-77
2021/08/26 00:08:33;;;;;;;19.67;14.75;;;17.00;99.90;;;;;;4987043;28;20094;-78
2021/08/26 00:11:00;;;;;;;20.77;15.60;;;17.00;99.90;;;;;;4992421;28;20129;-77
2021/08/26 00:13:28;;;;;;;17.42;13.63;;;17.00;99.90;;;;;;4993935;28;20065;-78
2021/08/26 00:15:56;;;;;;;19.48;15.32;;;17.00;99.90;;;;;;4993800;28;20058;-77
2021/08/26 00:18:24;;;;;;;19.95;16.10;;;16.90;99.90;;;;;;4993268;28;20484;-78
2021/08/26 00:20:52;;;;;;;21.00;15.75;;;16.90;99.90;;;;;;4993793;28;20387;-78
2021/08/26 00:23:21;;;;;;;19.27;15.55;;;16.90;99.90;;;;;;4997491;28;20058;-78
2021/08/26 00:25:49;;;;;;;22.92;15.77;;;16.90;99.90;;;;;;4996759;28;20058;-77
2021/08/26 00:28:16;;;;;;;19.38;15.43;;;16.80;99.90;;;;;;4994084;28;20133;-78
2021/08/26 00:30:43;;;;;;;24.90;16.40;;;16.80;99.90;;;;;;4994190;28;20047;-77
2021/08/26 00:33:10;;;;;;;19.98;15.32;;;16.70;99.90;;;;;;4994277;28;20621;-77
2021/08/26 00:35:37;;;;;;;20.98;15.23;;;16.70;99.90;;;;;;4994132;28;20056;-76
2021/08/26 00:38:04;;;;;;;18.83;13.95;;;16.60;99.90;;;;;;4995422;28;20133;-75
2021/08/26 00:40:32;;;;;;;17.05;13.60;;;16.60;99.90;;;;;;4999353;28;20050;-78
2021/08/26 00:43:02;;;;;;;15.85;12.77;;;16.60;99.90;;;;;;5012428;28;20173;-77
2021/08/26 00:45:29;;;;;;;17.67;13.75;;;16.60;99.90;;;;;;5013999;28;20071;-77
2021/08/26 00:47:57;;;;;;;15.63;12.43;;;16.60;99.90;;;;;;5013333;28;20039;-77
2021/08/26 00:50:25;;;;;;;18.23;12.90;;;16.60;99.90;;;;;;5013534;28;20089;-78
2021/08/26 00:52:54;;;;;;;16.52;11.90;;;16.50;99.90;;;;;;5012923;28;20058;-78
2021/08/26 00:55:21;;;;;;;17.35;12.27;;;16.50;99.90;;;;;;4994881;28;20086;-78
2021/08/26 00:57:49;;;;;;;15.90;12.15;;;16.50;99.90;;;;;;4998746;28;20081;-78
2021/08/26 01:00:17;;;;;;;15.93;12.38;;;16.50;99.90;;;;;;4994338;28;20047;-78
2021/08/26 01:02:52;;;;;;;17.23;11.13;;;16.50;99.90;;;;;;4993610;28;20046;-78
2021/08/26 01:05:24;;;;;;;16.90;12.02;;;16.50;99.90;;;;;;4993343;28;20089;-77
2021/08/26 01:07:58;;;;;;;13.33;10.57;;;16.40;99.90;;;;;;4992895;28;20054;-77
2021/08/26 01:10:26;;;;;;;13.82;10.40;;;16.40;99.90;;;;;;4992317;28;20133;-77
2021/08/26 01:12:56;;;;;;;18.73;11.15;;;16.50;99.90;;;;;;4992784;28;20528;-78
2021/08/26 01:15:26;;;;;;;16.17;11.27;;;16.40;99.90;;;;;;4993047;28;20050;-78
2021/08/26 01:17:54;;;;;;;16.75;10.88;;;16.30;99.90;;;;;;4992966;28;20474;-79
2021/08/26 01:20:21;;;;;;;15.80;10.50;;;16.30;99.90;;;;;;4993022;28;20050;-79
2021/08/26 01:22:48;;;;;;;14.88;10.07;;;16.30;99.90;;;;;;4992918;28;20073;-79
2021/08/26 01:25:20;;;;;;;12.18;9.65;;;16.30;99.90;;;;;;4992727;28;20096;-78
2021/08/26 01:27:52;;;;;;;12.50;9.73;;;16.40;99.90;;;;;;4993454;28;20088;-79
2021/08/26 01:30:21;;;;;;;13.60;9.68;;;16.40;99.90;;;;;;4993436;28;20186;-79
2021/08/26 01:32:51;;;;;;;13.50;10.02;;;16.40;99.90;;;;;;4993438;28;20066;-78
2021/08/26 01:35:19;;;;;;;13.30;10.07;;;16.30;99.90;;;;;;4992331;28;20082;-77
2021/08/26 01:37:46;;;;;;;12.85;9.80;;;16.30;99.90;;;;;;4993337;28;20086;-78
2021/08/26 01:40:13;;;;;;;12.70;9.77;;;16.30;99.90;;;;;;4992992;28;20463;-80
2021/08/26 01:42:40;;;;;;;15.50;10.70;;;16.30;99.90;;;;;;4992806;28;20105;-79
2021/08/26 01:45:10;;;;;;;12.52;10.23;;;16.20;99.90;;;;;;4992215;28;20133;-80
2021/08/26 01:47:38;;;;;;;13.50;10.18;;;16.20;99.90;;;;;;4992580;28;20133;-78
2021/08/26 01:50:06;;;;;;;13.05;10.10;;;16.10;99.90;;;;;;4993195;28;20050;-77
2021/08/26 01:52:33;;;;;;;13.93;10.40;;;16.10;99.90;;;;;;4993304;28;20141;-78
2021/08/26 01:55:01;;;;;;;12.80;9.88;;;16.10;99.90;;;;;;4992017;28;20089;-80
2021/08/26 01:57:30;;;;;;;13.70;10.52;;;16.10;99.90;;;;;;4992860;28;20485;-79
2021/08/26 01:59:59;;;;;;;12.02;10.18;;;16.00;99.90;;;;;;4992241;28;20237;-79
2021/08/26 02:02:27;;;;;;;12.77;9.85;;;16.00;99.90;;;;;;4992128;28;20052;-78
2021/08/26 02:04:54;;;;;;;14.80;10.88;;;16.00;99.90;;;;;;4993272;28;20533;-78
2021/08/26 02:07:21;;;;;;;12.98;10.18;;;16.00;99.90;;;;;;4992118;28;20499;-78
2021/08/26 02:09:48;;;;;;;14.40;10.32;;;16.00;99.90;;;;;;4992115;28;20129;-78
2021/08/26 02:12:15;;;;;;;15.27;11.02;;;16.00;99.90;;;;;;4992102;28;20051;-77
2021/08/26 02:14:42;;;;;;;12.80;10.52;;;16.00;99.90;;;;;;4991741;28;20059;-78
2021/08/26 02:17:09;;;;;;;15.75;9.93;;;15.90;99.90;;;;;;4991529;28;20531;-79
2021/08/26 02:19:37;;;;;;;12.82;10.48;;;16.00;99.90;;;;;;4991845;28;20074;-78
2021/08/26 02:22:04;;;;;;;13.10;10.45;;;16.00;99.90;;;;;;4992027;28;20129;-79
2021/08/26 02:24:32;;;;;;;12.18;9.40;;;16.00;99.90;;;;;;4991800;28;20050;-80
2021/08/26 02:26:59;;;;;;;11.93;9.50;;;16.00;99.90;;;;;;4991654;28;20104;-78
2021/08/26 02:29:26;;;;;;;12.32;10.43;;;16.10;99.90;;;;;;4991765;28;20086;-79
2021/08/26 02:31:53;;;;;;;15.13;10.88;;;16.10;99.90;;;;;;4991728;28;20133;-77
2021/08/26 02:34:20;;;;;;;14.82;11.00;;;16.10;99.90;;;;;;4991645;28;20050;-79
2021/08/26 02:36:48;;;;;;;14.50;10.93;;;16.10;99.90;;;;;;4991788;28;20152;-78
2021/08/26 02:39:15;;;;;;;14.98;11.80;;;16.10;99.90;;;;;;4991626;28;20074;-78
2021/08/26 02:41:42;;;;;;;13.88;11.20;;;16.20;99.90;;;;;;4992974;28;20053;-78
2021/08/26 02:44:09;;;;;;;9.45;7.85;;;16.20;99.90;;;;;;4995294;28;20046;-78
2021/08/26 02:46:36;;;;;;;9.68;6.03;;;16.10;99.90;;;;;;4995620;28;20128;-78
2021/08/26 02:49:03;;;;;;;10.68;6.15;;;16.00;99.90;;;;;;4996017;28;20140;-77
2021/08/26 02:51:29;;;;;;;13.20;6.70;;;15.90;99.90;;;;;;4995435;28;20052;-78
2021/08/26 02:53:58;;;;;;;11.18;6.10;;;15.90;99.90;;;;;;4995525;28;20176;-77
2021/08/26 02:56:25;;;;;;;13.02;6.68;;;15.90;99.90;;;;;;4994859;28;20126;-78
2021/08/26 02:58:51;;;;;;;14.25;6.28;;;15.80;99.90;;;;;;4995283;28;20066;-78
2021/08/26 03:01:18;;;;;;;13.38;5.55;;;15.80;99.90;;;;;;4995118;28;20506;-78
2021/08/26 03:03:45;;;;;;;9.43;5.45;;;15.80;99.90;;;;;;4995261;28;20050;-78
2021/08/26 03:06:12;;;;;;;11.35;5.28;;;15.80;99.90;;;;;;4994673;28;20119;-79
2021/08/26 03:08:39;;;;;;;10.10;5.15;;;15.70;99.90;;;;;;4995617;28;20669;-79
2021/08/26 03:11:10;;;;;;;9.63;4.78;;;15.70;99.90;;;;;;4995252;28;20062;-78
2021/08/26 03:13:37;;;;;;;10.15;5.07;;;15.70;99.90;;;;;;4994864;28;20137;-79
2021/08/26 03:16:05;;;;;;;10.90;5.35;;;15.70;99.90;;;;;;4995342;28;20054;-79
2021/08/26 03:18:32;;;;;;;9.90;5.60;;;15.70;99.90;;;;;;4996012;28;20088;-78
2021/08/26 03:20:59;;;;;;;11.50;5.38;;;15.70;99.90;;;;;;4995263;28;20133;-78
2021/08/26 03:23:26;;;;;;;11.43;5.72;;;15.80;99.90;;;;;;4996028;28;20141;-80
2021/08/26 03:25:53;;;;;;;8.25;5.03;;;15.80;99.90;;;;;;4995311;28;20054;-78
2021/08/26 03:28:22;;;;;;;8.35;4.93;;;15.80;99.90;;;;;;4995424;28;20060;-81
2021/08/26 03:30:49;;;;;;;11.23;4.95;;;15.80;99.90;;;;;;4995534;28;20412;-80
2021/08/26 03:33:16;;;;;;;10.32;5.18;;;15.80;99.90;;;;;;4995562;28;20081;-79
2021/08/26 03:35:42;;;;;;;11.60;5.07;;;15.90;99.90;;;;;;4995716;28;20149;-80
2021/08/26 03:38:09;;;;;;;13.20;5.10;;;15.80;99.90;;;;;;4995858;28;20129;-78
2021/08/26 03:40:36;;;;;;;13.48;6.18;;;15.90;99.90;;;;;;4995577;28;20471;-78
2021/08/26 03:43:04;;;;;;;13.85;5.50;;;15.90;99.90;;;;;;4994518;28;20495;-78
2021/08/26 03:45:32;;;;;;;10.50;5.60;;;15.90;99.90;;;;;;4995392;28;20086;-78
2021/08/26 03:47:59;;;;;;;9.10;5.40;;;15.80;99.90;;;;;;4994988;28;20129;-79
2021/08/26 03:50:26;;;;;;;11.70;5.32;;;15.80;99.90;;;;;;4995486;28;20137;-79
2021/08/26 03:52:53;;;;;;;10.43;5.82;;;15.90;99.90;;;;;;4994342;28;20480;-80
2021/08/26 03:55:20;;;;;;;11.15;5.90;;;15.90;99.90;;;;;;4994450;28;20054;-78
2021/08/26 03:57:47;;;;;;;8.13;5.40;;;15.90;99.90;;;;;;4994872;28;20499;-78
2021/08/26 04:00:15;;;;;;;10.68;5.93;;;15.90;99.90;;;;;;4995602;28;20061;-79
2021/08/26 04:02:43;;;;;;;13.25;6.05;;;15.80;99.90;;;;;;4995552;28;20074;-79
2021/08/26 04:05:10;;;;;;;11.32;5.80;;;15.80;99.90;;;;;;4995625;28;20444;-81
2021/08/26 04:07:37;;;;;;;10.82;5.70;;;15.80;99.90;;;;;;4995036;28;20132;-79
2021/08/26 04:10:05;;;;;;;10.57;5.97;;;15.80;99.90;;;;;;4995842;28;20145;-81
2021/08/26 04:12:32;;;;;;;16.60;5.93;;;15.80;99.90;;;;;;4995456;28;20125;-79
2021/08/26 04:14:59;;;;;;;11.00;5.90;;;15.70;99.90;;;;;;4996152;28;20106;-79
2021/08/26 04:17:26;;;;;;;11.43;5.93;;;15.70;99.90;;;;;;4996102;28;20417;-80
2021/08/26 04:19:54;;;;;;;9.82;5.38;;;15.80;99.90;;;;;;4994743;28;20459;-79
2021/08/26 04:22:21;;;;;;;9.65;6.45;;;15.80;99.90;;;;;;4994375;28;20141;-80
2021/08/26 04:24:48;;;;;;;11.38;6.10;;;15.80;99.90;;;;;;4995028;28;20137;-80
2021/08/26 04:27:14;;;;;;;12.30;6.43;;;15.80;99.90;;;;;;4994944;28;20058;-79
2021/08/26 04:29:41;;;;;;;13.38;6.47;;;15.80;99.90;;;;;;4994736;28;20057;-79
2021/08/26 04:32:08;;;;;;;11.23;6.32;;;15.80;99.90;;;;;;4993371;28;20050;-78
2021/08/26 04:34:35;;;;;;;12.02;7.40;;;15.90;99.90;;;;;;4992875;28;20537;-78
2021/08/26 04:37:04;;;;;;;15.32;7.43;;;15.90;99.90;;;;;;4993014;28;20145;-79
2021/08/26 04:39:31;;;;;;;13.90;7.82;;;15.90;99.90;;;;;;4992874;28;20077;-78
2021/08/26 04:41:57;;;;;;;13.05;6.85;;;15.90;99.90;;;;;;4992972;28;20053;-80
2021/08/26 04:44:24;;;;;;;12.15;7.50;;;15.90;99.90;;;;;;4992720;28;20054;-78
2021/08/26 04:46:51;;;;;;;16.77;7.75;;;16.00;99.90;;;;;;4992866;28;20109;-78
2021/08/26 04:49:18;;;;;;;18.10;8.57;;;16.00;99.90;;;;;;4992989;28;20052;-79
2021/08/26 04:51:45;;;;;;;15.25;8.63;;;16.00;99.90;;;;;;4992946;28;20093;-78
2021/08/26 04:54:13;;;;;;;12.95;7.65;;;16.00;99.90;;;;;;4992689;28;20133;-77
2021/08/26 04:56:40;;;;;;;11.55;7.50;;;16.10;99.90;;;;;;4992600;28;20453;-78
2021/08/26 04:59:07;;;;;;;14.65;8.15;;;16.10;99.90;;;;;;4992510;28;20137;-78
2021/08/26 05:01:34;;;;;;;17.98;8.80;;;16.10;99.90;;;;;;4992579;28;20589;-78
2021/08/26 05:04:03;;;;;;;11.77;7.53;;;16.10;99.90;;;;;;4993150;28;20528;-79
2021/08/26 05:06:30;;;;;;;16.92;8.40;;;16.10;99.90;;;;;;4993724;28;20050;-78
2021/08/26 05:08:56;;;;;;;15.07;7.47;;;16.10;99.90;;;;;;4992474;28;20056;-78
2021/08/26 05:11:25;;;;;;;15.18;8.52;;;16.10;99.90;;;;;;4992229;28;20141;-79
2021/08/26 05:13:52;;;;;;;14.70;7.85;;;16.10;99.90;;;;;;4992759;28;20056;-78
2021/08/26 05:16:19;;;;;;;18.05;7.80;;;16.10;99.90;;;;;;4991851;28;20145;-76
2021/08/26 05:18:45;;;;;;;11.80;7.30;;;16.10;99.90;;;;;;4992138;28;20561;-79
2021/08/26 05:21:12;;;;;;;12.38;6.95;;;16.10;99.90;;;;;;4992622;28;20078;-79
2021/08/26 05:23:39;;;;;;;12.88;6.53;;;16.00;99.90;;;;;;4993115;28;20138;-78
2021/08/26 05:26:06;;;;;;;11.75;6.53;;;16.00;99.90;;;;;;4992234;28;20089;-78
2021/08/26 05:28:34;;;;;;;11.45;7.05;;;16.10;99.90;;;;;;4993575;28;20081;-77
2021/08/26 05:31:01;;;;;;;12.20;6.43;;;16.10;99.90;;;;;;4991871;28;20073;-76
2021/08/26 05:33:28;;;;;;;13.52;6.18;;;16.10;99.90;;;;;;4992517;28;20451;-77
2021/08/26 05:35:55;;;;;;;18.15;6.60;;;16.10;99.90;;;;;;4991895;28;20141;-78
2021/08/26 05:38:21;;;;;;;12.63;6.00;;;16.10;99.90;;;;;;4992227;28;20085;-77
2021/08/26 05:40:48;;;;;;;15.23;6.65;;;16.10;99.90;;;;;;4992065;28;20081;-79
2021/08/26 05:43:15;;;;;;;14.57;6.40;;;16.20;99.90;;;;;;4992136;28;20145;-78
2021/08/26 05:45:43;;;;;;;17.20;6.50;;;16.10;99.90;;;;;;4992341;28;20133;-77
2021/08/26 05:48:10;;;;;;;13.50;6.47;;;16.20;99.90;;;;;;4992707;28;20458;-77
2021/08/26 05:50:37;;;;;;;13.73;6.20;;;16.20;99.90;;;;;;4992260;28;20108;-77
2021/08/26 05:53:04;;;;;;;13.10;6.35;;;16.20;99.90;;;;;;4992082;28;20429;-78
2021/08/26 05:55:32;;;;;;;11.00;5.90;;;16.10;99.90;;;;;;4991864;28;20056;-77
2021/08/26 05:57:59;;;;;;;16.77;6.07;;;16.00;99.90;;;;;;4991956;28;20137;-77
2021/08/26 06:00:26;;;;;;;14.88;6.25;;;16.00;99.90;;;;;;4991828;28;20149;-78
2021/08/26 06:02:54;;;;;;;18.60;6.78;;;16.00;99.90;;;;;;4992255;28;20403;-77
2021/08/26 06:05:21;;;;;;;18.42;6.45;;;16.10;99.90;;;;;;4991755;28;20141;-77
2021/08/26 06:07:48;;;;;;;16.80;6.07;;;16.10;99.90;;;;;;5012125;23;20062;-78
2021/08/26 06:10:15;;;;;;;13.77;6.57;;;16.20;99.90;;;;;;4991307;28;20042;-78
2021/08/26 06:12:43;;;;;;;14.18;6.13;;;16.20;99.90;;;;;;4996101;28;20089;-79
2021/08/26 06:15:12;;;;;;;14.00;5.75;;;16.20;99.90;;;;;;4995290;28;20110;-80
2021/08/26 06:17:39;;;;;;;19.67;6.75;;;16.30;99.90;;;;;;4998414;28;20530;-79
2021/08/26 06:20:10;;;;;;;14.02;5.65;;;16.30;99.90;;;;;;4993036;28;20360;-77
2021/08/26 06:22:38;;;;;;;15.23;6.53;;;16.40;99.90;;;;;;4988923;28;20097;-80
2021/08/26 06:25:06;;;;;;;13.20;6.05;;;16.40;99.90;;;;;;4991170;28;20054;-80
2021/08/26 06:27:33;;;;;;;12.07;5.97;;;16.50;99.90;;;;;;4987302;28;20073;-79
2021/08/26 06:30:00;;;;;;;17.67;5.88;;;16.60;99.90;;;;;;4992428;28;20042;-81
2021/08/26 06:32:28;;;;;;;12.52;6.47;;;16.70;99.90;;;;;;4986225;28;20101;-81
2021/08/26 06:34:55;;;;;;;10.52;6.25;;;16.70;99.90;;;;;;4989075;28;20043;-79
2021/08/26 06:37:23;;;;;;;12.55;6.10;;;16.80;99.90;;;;;;4990220;28;20054;-79
2021/08/26 06:39:50;;;;;;;15.63;6.60;;;16.80;99.90;;;;;;4986700;28;20113;-80
2021/08/26 06:42:17;;;;;;;10.38;5.72;;;16.80;99.90;;;;;;4987785;28;20047;-79
2021/08/26 06:44:44;;;;;;;15.27;5.93;;;16.80;99.90;;;;;;4984219;28;20050;-80
2021/08/26 06:47:11;;;;;;;17.90;5.63;;;16.80;99.90;;;;;;4987033;28;20068;-79
2021/08/26 06:49:38;;;;;;;13.40;6.15;;;16.80;99.90;;;;;;4984026;28;20152;-78
2021/08/26 06:52:06;;;;;;;17.33;7.82;;;16.80;99.90;;;;;;4995111;28;20076;-78
2021/08/26 06:54:34;;;;;;;22.02;7.63;;;16.90;99.90;;;;;;4982392;28;20133;-79
2021/08/26 06:57:01;;;;;;;16.45;5.82;;;16.80;99.90;;;;;;4983743;28;20050;-79
2021/08/26 06:59:28;;;;;;;20.77;6.50;;;16.90;99.90;;;;;;4984590;28;20129;-80
2021/08/26 07:01:55;;;;;;;12.15;5.93;;;16.90;99.90;;;;;;4987706;28;20507;-80
2021/08/26 07:04:22;;;;;;;16.55;7.57;;;16.80;99.90;;;;;;4984403;28;20074;-80
2021/08/26 07:06:52;;;;;;;15.27;6.57;;;16.80;99.90;;;;;;4990784;28;20081;-81
2021/08/26 07:09:20;;;;;;;15.68;6.72;;;16.70;99.90;;;;;;4987025;28;20463;-80
2021/08/26 07:11:48;;;;;;;20.88;7.05;;;16.80;99.90;;;;;;4981642;28;20652;-80
2021/08/26 07:14:16;;;;;;;14.30;6.97;;;16.90;99.90;;;;;;4994374;28;20088;-80
2021/08/26 07:16:43;;;;;;;13.90;6.63;;;16.80;99.90;;;;;;4982698;28;20134;-81
2021/08/26 07:19:10;;;;;;;16.85;6.82;;;16.90;99.90;;;;;;4982931;28;20137;-79
2021/08/26 07:21:37;;;;;;;18.23;6.78;;;17.00;99.90;;;;;;4982915;28;20042;-81
2021/08/26 07:24:04;;;;;;;20.50;6.70;;;17.10;99.90;;;;;;4997090;28;20501;-80
2021/08/26 07:26:31;;;;;;;16.08;6.47;;;17.10;99.90;;;;;;5000435;28;20078;-80
2021/08/26 07:29:01;;;;;;;16.55;6.35;;;17.10;99.90;;;;;;4999076;28;20476;-81
2021/08/26 07:31:28;;;;;;;14.50;6.13;;;17.20;99.90;;;;;;4998883;28;20583;-81
2021/08/26 07:33:54;;;;;;;15.82;6.38;;;17.30;99.90;;;;;;4998760;28;20109;-81
2021/08/26 07:36:21;;;;;;;14.57;5.47;;;17.30;99.90;;;;;;4998031;28;20434;-80
2021/08/26 07:38:48;;;;;;;15.48;6.65;;;17.30;99.90;;;;;;4999189;28;20129;-81
2021/08/26 07:41:15;;;;;;;12.85;5.55;;;17.40;99.90;;;;;;4998629;28;20133;-80
2021/08/26 07:43:42;;;;;;;16.67;6.15;;;17.60;99.90;;;;;;4998512;28;20046;-80
2021/08/26 07:46:11;;;;;;;17.42;5.97;;;17.60;99.90;;;;;;4998784;28;20448;-80
2021/08/26 07:48:38;;;;;;;22.92;6.60;;;17.80;99.90;;;;;;4998863;28;20114;-80
2021/08/26 07:51:05;;;;;;;17.80;6.68;;;17.90;99.90;;;;;;4998697;28;20137;-80
2021/08/26 07:53:33;;;;;;;16.35;6.88;;;18.00;99.90;;;;;;4998370;28;20133;-80
2021/08/26 07:56:00;;;;;;;14.60;5.80;;;18.00;99.90;;;;;;4997271;28;20054;-80
2021/08/26 07:58:30;;;;;;;19.83;6.43;;;18.00;99.90;;;;;;4997011;28;20085;-80
2021/08/26 08:00:57;;;;;;;15.48;6.13;;;18.00;99.90;;;;;;4997594;28;20503;-78
2021/08/26 08:03:25;;;;;;;19.20;6.63;;;17.80;99.90;;;;;;4998462;28;20047;-78
2021/08/26 08:05:52;;;;;;;23.30;6.40;;;17.70;99.90;;;;;;4996040;28;20485;-80
2021/08/26 08:08:19;;;;;;;16.40;5.82;;;17.60;99.90;;;;;;4996890;28;20088;-80
2021/08/26 08:10:46;;;;;;;15.07;5.78;;;17.60;99.90;;;;;;5000576;28;20050;-81
2021/08/26 08:13:16;;;;;;;17.52;7.28;;;17.60;99.90;;;;;;4997541;28;20050;-80
2021/08/26 08:15:44;;;;;;;17.13;5.68;;;17.60;99.90;;;;;;4997788;28;20160;-80
2021/08/26 08:18:11;;;;;;;11.95;5.53;;;17.70;99.90;;;;;;4997296;28;20100;-80
2021/08/26 08:20:40;;;;;;;14.02;5.30;;;17.80;99.90;;;;;;4998212;28;20050;-78
2021/08/26 08:23:07;;;;;;;11.27;4.65;;;17.90;99.90;;;;;;4998254;28;20081;-81
2021/08/26 08:25:34;;;;;;;10.27;4.50;;;18.10;99.90;;;;;;4998044;28;20129;-81
2021/08/26 08:28:00;;;;;;;14.98;4.80;;;18.10;99.90;;;;;;4997217;28;20170;-80
2021/08/26 08:30:27;;;;;;;9.50;4.43;;;18.20;99.90;;;;;;4999611;28;20426;-80
2021/08/26 08:32:55;;;;;;;10.10;5.05;;;18.10;99.90;;;;;;4998440;28;20042;-81
2021/08/26 08:35:22;;;;;;;10.55;5.05;;;18.10;99.90;;;;;;4998169;28;20479;-78
2021/08/26 08:37:51;;;;;;;12.73;4.38;;;18.10;99.90;;;;;;4997229;28;20278;-80
2021/08/26 08:40:18;;;;;;;14.32;4.45;;;18.20;99.90;;;;;;4996845;28;20497;-80
2021/08/26 08:42:45;;;;;;;17.05;5.03;;;18.30;99.90;;;;;;4997723;28;20133;-79
2021/08/26 08:45:12;;;;;;;11.60;4.70;;;18.30;99.90;;;;;;4997074;28;20080;-80
2021/08/26 08:47:40;;;;;;;11.77;4.35;;;18.40;99.90;;;;;;4997339;28;20134;-80
2021/08/26 08:50:08;;;;;;;13.32;4.53;;;18.40;99.90;;;;;;4999031;28;20141;-80
2021/08/26 08:52:37;;;;;;;12.30;4.78;;;18.40;99.90;;;;;;4998110;28;20042;-80
2021/08/26 08:55:08;;;;;;;18.98;5.38;;;18.30;99.90;;;;;;4998626;28;20165;-79
2021/08/26 08:57:37;;;;;;;18.45;5.60;;;18.20;99.90;;;;;;4998487;28;20169;-80
2021/08/26 09:00:07;;;;;;;11.07;4.75;;;18.20;99.90;;;;;;4999378;28;20414;-80
2021/08/26 09:02:34;;;;;;;11.77;4.80;;;18.20;99.90;;;;;;4999158;28;20046;-80
2021/08/26 09:05:02;;;;;;;14.80;5.13;;;18.30;99.90;;;;;;4999615;28;20082;-81
2021/08/26 09:07:30;;;;;;;10.48;5.03;;;18.40;99.90;;;;;;4998754;28;20061;-80
2021/08/26 09:09:58;;;;;;;13.07;5.05;;;18.60;99.90;;;;;;4999992;28;20078;-80
2021/08/26 09:12:45;;;;;;;10.38;4.70;;;18.60;99.90;;;;;;4999231;28;20053;-80
2021/08/26 09:15:14;;;;;;;11.80;4.93;;;18.60;99.90;;;;;;4998185;28;20058;-81
2021/08/26 09:17:42;;;;;;;15.45;5.38;;;18.60;99.90;;;;;;4996073;28;20089;-80
2021/08/26 09:20:11;;;;;;;10.00;4.68;;;18.60;99.90;;;;;;4994158;28;20144;-81
2021/08/26 09:22:38;;;;;;;11.45;5.15;;;18.70;99.90;;;;;;4976496;28;20145;-80
2021/08/26 09:25:06;;;;;;;12.73;4.90;;;18.70;99.90;;;;;;4976567;28;20169;-80
2021/08/26 09:27:40;;;;;;;11.45;4.88;;;18.80;99.90;;;;;;4977471;28;20089;-80
2021/08/26 09:30:11;;;;;;;12.13;5.18;;;18.70;99.90;;;;;;4977630;28;20117;-79
2021/08/26 09:32:40;;;;;;;11.45;5.10;;;18.40;99.90;;;;;;4978488;28;20054;-81
2021/08/26 09:35:18;;;;;;;12.40;4.78;;;18.30;99.90;;;;;;4979301;28;20511;-80
2021/08/26 09:37:48;;;;;;;14.98;4.78;;;18.20;99.90;;;;;;4977411;28;20119;-80
2021/08/26 09:40:16;;;;;;;15.55;4.53;;;18.20;99.90;;;;;;4977521;28;20081;-79
2021/08/26 09:42:43;;;;;;;13.63;4.05;;;18.30;99.90;;;;;;4976657;28;20201;-80
2021/08/26 09:45:20;;;;;;;10.57;4.10;;;18.40;99.90;;;;;;4976658;28;20579;-80
2021/08/26 09:48:07;;;;;;;7.22;3.30;;;18.80;99.90;;;;;;4977000;28;20125;-80
2021/08/26 09:50:40;;;;;;;9.57;3.85;;;18.90;99.90;;;;;;4976470;28;20089;-79
2021/08/26 09:53:07;;;;;;;6.57;3.10;;;18.80;99.90;;;;;;4980088;28;20050;-81
2021/08/26 09:55:54;;;;;;;6.85;3.30;;;18.70;99.90;;;;;;4980558;28;20205;-80
2021/08/26 09:58:22;;;;;;;6.90;3.30;;;18.60;99.90;;;;;;4980380;28;20065;-80
2021/08/26 10:01:03;;;;;;;11.00;3.63;;;18.60;99.90;;;;;;4980476;28;20114;-80
2021/08/26 10:03:32;;;;;;;8.40;3.22;;;18.90;99.90;;;;;;4980417;28;20141;-79
2021/08/26 10:05:59;;;;;;;11.77;3.70;;;19.00;99.90;;;;;;4981088;28;20529;-79
2021/08/26 10:08:26;;;;;;;8.38;3.92;;;19.10;99.90;;;;;;4980183;28;20430;-80
2021/08/26 10:10:54;;;;;;;8.10;3.45;;;19.10;99.90;;;;;;4980102;28;20550;-79
2021/08/26 10:13:21;;;;;;;5.22;3.15;;;19.00;99.90;;;;;;4979591;28;20130;-78
2021/08/26 10:15:50;;;;;;;7.93;3.30;;;18.90;99.90;;;;;;4979513;28;20150;-79
2021/08/26 10:18:18;;;;;;;6.55;3.40;;;19.00;99.90;;;;;;4979743;28;20507;-80
2021/08/26 10:20:45;;;;;;;9.27;3.85;;;19.10;99.90;;;;;;4980155;28;20054;-79
2021/08/26 10:23:13;;;;;;;5.95;3.53;;;19.20;99.90;;;;;;4980382;28;20125;-79
2021/08/26 10:25:44;;;;;;;8.02;3.72;;;19.40;99.90;;;;;;4981607;28;20134;-80
2021/08/26 10:28:12;;;;;;;7.57;3.67;;;19.50;99.90;;;;;;4980664;28;20447;-78
2021/08/26 10:30:40;;;;;;;9.43;3.80;;;19.50;99.90;;;;;;4980355;28;20494;-79
2021/08/26 10:33:10;;;;;;;6.80;3.80;;;19.60;99.90;;;;;;4980887;28;20494;-79
2021/08/26 10:36:02;;;;;;;8.32;4.15;;;19.90;99.90;;;;;;4978368;28;20068;-78
2021/08/26 10:38:30;;;;;;;10.02;4.13;;;20.10;99.90;;;;;;4979270;28;20058;-80
2021/08/26 10:40:58;;;;;;;9.07;4.10;;;20.30;99.90;;;;;;4979856;28;20118;-80
2021/08/26 10:43:36;;;;;;;8.75;3.45;;;20.10;99.90;;;;;;4979922;28;20050;-79
2021/08/26 10:46:08;;;;;;;8.75;4.00;;;19.80;99.90;;;;;;4979380;28;20118;-79
2021/08/26 10:48:37;;;;;;;7.57;4.20;;;19.60;99.90;;;;;;4980871;28;20089;-80
2021/08/26 10:51:07;;;;;;;13.93;5.30;;;19.30;99.90;;;;;;4980278;28;20486;-79
2021/08/26 10:53:36;;;;;;;9.88;4.97;;;19.30;99.90;;;;;;4981115;28;20093;-80
2021/08/26 10:56:25;;;;;;;11.73;4.93;;;19.40;99.90;;;;;;4981001;28;20086;-79
2021/08/26 10:58:53;;;;;;;11.90;4.55;;;19.50;99.90;;;;;;4976952;28;20064;-79
2021/08/26 11:01:40;;;;;;;7.85;4.68;;;19.50;99.90;;;;;;4980840;28;20332;-79
2021/08/26 11:04:20;;;;;;;10.38;4.72;;;19.50;99.90;;;;;;4985273;28;20058;-79
2021/08/26 11:06:48;;;;;;;11.65;4.50;;;19.50;99.90;;;;;;4992292;28;20074;-81
2021/08/26 11:09:38;;;;;;;10.00;4.35;;;19.60;99.90;;;;;;4991707;28;20050;-81
2021/08/26 11:12:24;;;;;;;9.65;3.88;;;19.60;99.90;;;;;;4990805;28;20062;-80
2021/08/26 11:14:52;;;;;;;11.30;5.05;;;19.70;99.90;;;;;;4990648;28;20053;-79
2021/08/26 11:17:28;;;;;;;7.45;4.00;;;19.70;99.90;;;;;;4983265;28;20082;-80
2021/08/26 11:19:57;;;;;;;10.07;4.35;;;19.80;99.90;;;;;;4979539;28;20522;-80
2021/08/26 11:22:24;;;;;;;7.97;3.75;;;19.80;99.90;;;;;;4979143;28;20110;-79
2021/08/26 11:24:54;;;;;;;15.55;4.53;;;20.10;99.90;;;;;;4978232;28;20047;-79
2021/08/26 11:27:25;;;;;;;9.68;4.30;;;20.40;99.90;;;;;;4977403;28;20134;-79
2021/08/26 11:29:53;;;;;;;6.07;3.53;;;20.60;99.90;;;;;;4977783;28;20117;-79
2021/08/26 11:32:24;;;;;;;7.68;4.32;;;20.50;99.90;;;;;;4978552;28;20051;-79
2021/08/26 11:34:52;;;;;;;7.95;3.67;;;20.30;99.90;;;;;;4978771;28;20047;-80
2021/08/26 11:37:23;;;;;;;11.98;4.10;;;20.30;99.90;;;;;;4977662;28;20462;-80
2021/08/26 11:39:56;;;;;;;8.30;3.97;;;20.20;99.90;;;;;;4978545;28;20138;-80
2021/08/26 11:42:26;;;;;;;8.45;3.80;;;20.10;99.90;;;;;;4978416;28;20129;-79
2021/08/26 11:45:20;;;;;;;9.38;3.90;;;20.00;99.90;;;;;;4977863;28;20566;-79
2021/08/26 11:47:49;;;;;;;7.28;4.30;;;20.00;99.90;;;;;;4979584;28;20051;-80
2021/08/26 11:50:20;;;;;;;11.68;4.55;;;20.00;99.90;;;;;;4977221;28;20459;-79
2021/08/26 11:52:50;;;;;;;9.77;3.67;;;20.00;99.90;;;;;;4980749;28;20092;-79
2021/08/26 11:55:18;;;;;;;7.97;3.85;;;20.10;99.90;;;;;;4978646;28;20051;-79
2021/08/26 11:57:45;;;;;;;6.22;3.55;;;20.20;99.90;;;;;;4978963;28;20078;-79
2021/08/26 12:00:16;;;;;;;8.27;4.20;;;20.20;99.90;;;;;;4979418;28;20111;-79
2021/08/26 12:02:50;;;;;;;11.82;4.32;;;20.30;99.90;;;;;;4978250;28;20061;-79
2021/08/26 12:05:18;;;;;;;10.43;4.53;;;20.30;99.90;;;;;;4977937;28;20058;-79
2021/08/26 12:07:46;;;;;;;7.78;3.85;;;20.30;99.90;;;;;;4998330;23;20137;-79
2021/08/26 12:10:19;;;;;;;13.38;4.10;;;20.40;99.90;;;;;;4976027;28;20134;-78
2021/08/26 12:12:59;;;;;;;10.52;3.88;;;20.40;99.90;;;;;;4975694;28;20054;-77
2021/08/26 12:15:32;;;;;;;7.43;3.58;;;20.50;99.90;;;;;;4974242;28;20138;-78
2021/08/26 12:18:02;;;;;;;6.47;3.50;;;20.80;99.90;;;;;;4975134;28;20089;-79
2021/08/26 12:20:33;;;;;;;6.22;3.60;;;20.90;99.90;;;;;;4975199;28;20288;-78
2021/08/26 12:23:00;;;;;;;5.57;3.70;;;21.10;99.90;;;;;;4974705;28;20050;-79
2021/08/26 12:25:31;;;;;;;6.72;3.50;;;21.20;99.90;;;;;;4975157;28;20079;-78
2021/08/26 12:28:01;;;;;;;8.57;3.47;;;21.20;99.90;;;;;;4977314;28;20051;-80
2021/08/26 12:30:40;;;;;;;6.25;3.55;;;21.30;99.90;;;;;;4976667;28;20137;-79
2021/08/26 12:33:18;;;;;;;8.63;3.70;;;21.30;99.90;;;;;;4975742;28;20082;-79
2021/08/26 12:35:48;;;;;;;8.25;3.70;;;21.30;99.90;;;;;;4975488;28;20500;-78
2021/08/26 12:38:17;;;;;;;13.07;3.97;;;21.50;99.90;;;;;;4975444;28;20501;-79
2021/08/26 12:40:52;;;;;;;8.68;3.70;;;21.60;99.90;;;;;;4975742;28;20709;-77
2021/08/26 12:43:22;;;;;;;7.03;3.83;;;21.70;99.90;;;;;;4975700;28;20054;-78
2021/08/26 12:45:50;;;;;;;8.80;3.67;;;21.60;99.90;;;;;;4975566;28;20047;-79
2021/08/26 12:48:29;;;;;;;12.55;4.20;;;21.60;99.90;;;;;;4975483;28;20109;-79